sensor_id;sensor_type;location;lat;lon;timestamp;pressure;altitude;pressure_sealevel;temperature
67822;BMP180;54434;50.096;20.082;2023-06-14T00:00:41;98819.40;;;11.30
67822;BMP180;54434;50.096;20.082;2023-06-14T00:03:38;98816.40;;;11.30
67822;BMP180;54434;50.096;20.082;2023-06-14T00:06:14;98817.20;;;11.30
67822;BMP180;54434;50.096;20.082;2023-06-14T00:08:51;98813.40;;;11.32
67822;BMP180;54434;50.096;20.082;2023-06-14T00:11:27;98813.60;;;11.40
67822;BMP180;54434;50.096;20.082;2023-06-14T00:14:05;98811.20;;;11.40
67822;BMP180;54434;50.096;20.082;2023-06-14T00:16:42;98810.80;;;11.40
67822;BMP180;54434;50.096;20.082;2023-06-14T00:19:19;98816.60;;;11.40
67822;BMP180;54434;50.096;20.082;2023-06-14T00:21:56;98820.40;;;11.46
67822;BMP180;54434;50.096;20.082;2023-06-14T00:24:32;98814.60;;;11.50
67822;BMP180;54434;50.096;20.082;2023-06-14T00:27:10;98810.60;;;11.50
67822;BMP180;54434;50.096;20.082;2023-06-14T00:29:47;98804.60;;;11.50
67822;BMP180;54434;50.096;20.082;2023-06-14T00:32:24;98805.60;;;11.50
67822;BMP180;54434;50.096;20.082;2023-06-14T00:35:04;98804.00;;;11.50
67822;BMP180;54434;50.096;20.082;2023-06-14T00:37:41;98800.80;;;11.50
67822;BMP180;54434;50.096;20.082;2023-06-14T00:40:17;98800.80;;;11.50
67822;BMP180;54434;50.096;20.082;2023-06-14T00:42:54;98797.60;;;11.50
67822;BMP180;54434;50.096;20.082;2023-06-14T00:45:30;98794.60;;;11.50
67822;BMP180;54434;50.096;20.082;2023-06-14T00:48:12;98791.60;;;11.48
67822;BMP180;54434;50.096;20.082;2023-06-14T00:50:52;98792.20;;;11.50
67822;BMP180;54434;50.096;20.082;2023-06-14T00:53:30;98786.20;;;11.50
67822;BMP180;54434;50.096;20.082;2023-06-14T00:56:09;98787.40;;;11.50
67822;BMP180;54434;50.096;20.082;2023-06-14T00:58:49;98786.40;;;11.50
67822;BMP180;54434;50.096;20.082;2023-06-14T01:01:27;98784.80;;;11.50
67822;BMP180;54434;50.096;20.082;2023-06-14T01:04:04;98782.80;;;11.50
67822;BMP180;54434;50.096;20.082;2023-06-14T01:06:56;98780.00;;;11.50
67822;BMP180;54434;50.096;20.082;2023-06-14T01:09:51;98780.00;;;11.50
67822;BMP180;54434;50.096;20.082;2023-06-14T01:12:44;98778.80;;;11.50
67822;BMP180;54434;50.096;20.082;2023-06-14T01:15:24;98780.00;;;11.50
67822;BMP180;54434;50.096;20.082;2023-06-14T01:18:01;98774.00;;;11.50
67822;BMP180;54434;50.096;20.082;2023-06-14T01:20:39;98772.40;;;11.58
67822;BMP180;54434;50.096;20.082;2023-06-14T01:23:15;98770.80;;;11.60
67822;BMP180;54434;50.096;20.082;2023-06-14T01:25:53;98769.40;;;11.60
67822;BMP180;54434;50.096;20.082;2023-06-14T01:28:31;98771.40;;;11.60
67822;BMP180;54434;50.096;20.082;2023-06-14T01:31:09;98765.60;;;11.60
67822;BMP180;54434;50.096;20.082;2023-06-14T01:33:48;98765.80;;;11.60
67822;BMP180;54434;50.096;20.082;2023-06-14T01:36:27;98758.20;;;11.60
67822;BMP180;54434;50.096;20.082;2023-06-14T01:39:06;98752.20;;;11.60
67822;BMP180;54434;50.096;20.082;2023-06-14T01:41:44;98748.80;;;11.60
67822;BMP180;54434;50.096;20.082;2023-06-14T01:44:23;98748.60;;;11.60
67822;BMP180;54434;50.096;20.082;2023-06-14T01:47:00;98748.60;;;11.60
67822;BMP180;54434;50.096;20.082;2023-06-14T01:49:37;98746.00;;;11.60
67822;BMP180;54434;50.096;20.082;2023-06-14T01:52:16;98745.20;;;11.60
67822;BMP180;54434;50.096;20.082;2023-06-14T01:54:54;98748.00;;;11.60
67822;BMP180;54434;50.096;20.082;2023-06-14T01:57:31;98744.80;;;11.70
67822;BMP180;54434;50.096;20.082;2023-06-14T02:00:11;98744.00;;;11.70
67822;BMP180;54434;50.096;20.082;2023-06-14T02:02:48;98745.60;;;11.70
67822;BMP180;54434;50.096;20.082;2023-06-14T02:05:25;98751.00;;;11.70
67822;BMP180;54434;50.096;20.082;2023-06-14T02:08:02;98752.60;;;11.70
67822;BMP180;54434;50.096;20.082;2023-06-14T02:10:38;98755.00;;;11.70
67822;BMP180;54434;50.096;20.082;2023-06-14T02:13:15;98753.40;;;11.80
67822;BMP180;54434;50.096;20.082;2023-06-14T02:15:51;98753.20;;;11.80
67822;BMP180;54434;50.096;20.082;2023-06-14T02:18:30;98752.80;;;11.80
67822;BMP180;54434;50.096;20.082;2023-06-14T02:21:07;98749.20;;;11.80
67822;BMP180;54434;50.096;20.082;2023-06-14T02:23:43;98749.20;;;11.80
67822;BMP180;54434;50.096;20.082;2023-06-14T02:26:20;98748.00;;;11.80
67822;BMP180;54434;50.096;20.082;2023-06-14T02:28:57;98749.00;;;11.86
67822;BMP180;54434;50.096;20.082;2023-06-14T02:31:34;98749.80;;;11.80
67822;BMP180;54434;50.096;20.082;2023-06-14T02:34:11;98747.80;;;11.82
67822;BMP180;54434;50.096;20.082;2023-06-14T02:36:47;98750.40;;;11.84
67822;BMP180;54434;50.096;20.082;2023-06-14T02:39:25;98751.80;;;11.90
67822;BMP180;54434;50.096;20.082;2023-06-14T02:42:01;98751.60;;;11.90
67822;BMP180;54434;50.096;20.082;2023-06-14T02:44:38;98756.00;;;11.90
67822;BMP180;54434;50.096;20.082;2023-06-14T02:47:14;98750.40;;;11.90
67822;BMP180;54434;50.096;20.082;2023-06-14T02:49:51;98746.00;;;11.90
67822;BMP180;54434;50.096;20.082;2023-06-14T02:52:28;98749.20;;;11.90
67822;BMP180;54434;50.096;20.082;2023-06-14T02:55:05;98751.40;;;11.92
67822;BMP180;54434;50.096;20.082;2023-06-14T02:57:43;98744.40;;;12.00
67822;BMP180;54434;50.096;20.082;2023-06-14T03:00:21;98748.20;;;12.00
67822;BMP180;54434;50.096;20.082;2023-06-14T03:02:58;98745.80;;;12.00
67822;BMP180;54434;50.096;20.082;2023-06-14T03:05:37;98744.40;;;12.00
67822;BMP180;54434;50.096;20.082;2023-06-14T03:08:16;98743.60;;;12.00
67822;BMP180;54434;50.096;20.082;2023-06-14T03:10:54;98742.00;;;12.00
67822;BMP180;54434;50.096;20.082;2023-06-14T03:13:32;98743.60;;;12.00
67822;BMP180;54434;50.096;20.082;2023-06-14T03:16:10;98743.20;;;12.10
67822;BMP180;54434;50.096;20.082;2023-06-14T03:18:47;98745.20;;;12.10
67822;BMP180;54434;50.096;20.082;2023-06-14T03:21:24;98743.40;;;12.10
67822;BMP180;54434;50.096;20.082;2023-06-14T03:24:02;98749.00;;;12.10
67822;BMP180;54434;50.096;20.082;2023-06-14T03:26:39;98744.60;;;12.10
67822;BMP180;54434;50.096;20.082;2023-06-14T03:29:16;98748.20;;;12.10
67822;BMP180;54434;50.096;20.082;2023-06-14T03:32:04;98745.60;;;12.14
67822;BMP180;54434;50.096;20.082;2023-06-14T03:34:43;98747.20;;;12.20
67822;BMP180;54434;50.096;20.082;2023-06-14T03:37:25;98746.60;;;12.20
67822;BMP180;54434;50.096;20.082;2023-06-14T03:40:02;98749.40;;;12.20
67822;BMP180;54434;50.096;20.082;2023-06-14T03:42:44;98747.20;;;12.20
67822;BMP180;54434;50.096;20.082;2023-06-14T03:45:20;98749.80;;;12.30
67822;BMP180;54434;50.096;20.082;2023-06-14T03:47:57;98755.40;;;12.30
67822;BMP180;54434;50.096;20.082;2023-06-14T03:50:37;98753.20;;;12.30
67822;BMP180;54434;50.096;20.082;2023-06-14T03:53:14;98758.20;;;12.30
67822;BMP180;54434;50.096;20.082;2023-06-14T03:55:55;98756.20;;;12.30
67822;BMP180;54434;50.096;20.082;2023-06-14T03:58:35;98757.60;;;12.30
67822;BMP180;54434;50.096;20.082;2023-06-14T04:01:13;98760.20;;;12.30
67822;BMP180;54434;50.096;20.082;2023-06-14T04:03:50;98757.20;;;12.30
67822;BMP180;54434;50.096;20.082;2023-06-14T04:06:26;98757.00;;;12.40
67822;BMP180;54434;50.096;20.082;2023-06-14T04:09:07;98757.40;;;12.40
67822;BMP180;54434;50.096;20.082;2023-06-14T04:11:44;98757.80;;;12.40
67822;BMP180;54434;50.096;20.082;2023-06-14T04:14:20;98760.60;;;12.40
67822;BMP180;54434;50.096;20.082;2023-06-14T04:16:57;98765.40;;;12.42
67822;BMP180;54434;50.096;20.082;2023-06-14T04:19:34;98766.60;;;12.46
67822;BMP180;54434;50.096;20.082;2023-06-14T04:22:11;98765.80;;;12.50
67822;BMP180;54434;50.096;20.082;2023-06-14T04:24:48;98765.00;;;12.50
67822;BMP180;54434;50.096;20.082;2023-06-14T04:27:39;98766.60;;;12.50
67822;BMP180;54434;50.096;20.082;2023-06-14T04:30:18;98769.00;;;12.50
67822;BMP180;54434;50.096;20.082;2023-06-14T04:32:57;98764.40;;;12.52
67822;BMP180;54434;50.096;20.082;2023-06-14T04:35:35;98770.00;;;12.60
67822;BMP180;54434;50.096;20.082;2023-06-14T04:38:12;98771.00;;;12.60
67822;BMP180;54434;50.096;20.082;2023-06-14T04:40:51;98772.60;;;12.60
67822;BMP180;54434;50.096;20.082;2023-06-14T04:43:29;98771.60;;;12.60
67822;BMP180;54434;50.096;20.082;2023-06-14T04:46:07;98772.40;;;12.66
67822;BMP180;54434;50.096;20.082;2023-06-14T04:48:46;98773.00;;;12.68
67822;BMP180;54434;50.096;20.082;2023-06-14T04:51:23;98769.60;;;12.70
67822;BMP180;54434;50.096;20.082;2023-06-14T04:54:05;98773.00;;;12.70
67822;BMP180;54434;50.096;20.082;2023-06-14T04:56:45;98775.80;;;12.70
67822;BMP180;54434;50.096;20.082;2023-06-14T04:59:22;98777.40;;;12.62
67822;BMP180;54434;50.096;20.082;2023-06-14T05:01:59;98774.80;;;12.60
67822;BMP180;54434;50.096;20.082;2023-06-14T05:04:35;98773.60;;;12.60
67822;BMP180;54434;50.096;20.082;2023-06-14T05:07:15;98774.60;;;12.70
67822;BMP180;54434;50.096;20.082;2023-06-14T05:09:51;98771.40;;;12.70
67822;BMP180;54434;50.096;20.082;2023-06-14T05:12:28;98775.60;;;12.76
67822;BMP180;54434;50.096;20.082;2023-06-14T05:15:07;98773.80;;;12.80
67822;BMP180;54434;50.096;20.082;2023-06-14T05:17:46;98776.80;;;12.90
67822;BMP180;54434;50.096;20.082;2023-06-14T05:20:28;98780.00;;;12.98
67822;BMP180;54434;50.096;20.082;2023-06-14T05:23:05;98777.20;;;13.00
67822;BMP180;54434;50.096;20.082;2023-06-14T05:25:43;98781.00;;;13.00
67822;BMP180;54434;50.096;20.082;2023-06-14T05:28:20;98779.40;;;13.00
67822;BMP180;54434;50.096;20.082;2023-06-14T05:30:57;98781.60;;;13.00
67822;BMP180;54434;50.096;20.082;2023-06-14T05:33:34;98782.00;;;13.00
67822;BMP180;54434;50.096;20.082;2023-06-14T05:36:11;98791.00;;;13.00
67822;BMP180;54434;50.096;20.082;2023-06-14T05:38:48;98785.80;;;13.00
67822;BMP180;54434;50.096;20.082;2023-06-14T05:41:26;98786.60;;;13.00
67822;BMP180;54434;50.096;20.082;2023-06-14T05:44:03;98789.20;;;12.98
67822;BMP180;54434;50.096;20.082;2023-06-14T05:46:39;98795.20;;;12.90
67822;BMP180;54434;50.096;20.082;2023-06-14T05:49:16;98800.20;;;12.90
67822;BMP180;54434;50.096;20.082;2023-06-14T05:51:53;98802.60;;;12.80
67822;BMP180;54434;50.096;20.082;2023-06-14T05:54:29;98805.60;;;12.72
67822;BMP180;54434;50.096;20.082;2023-06-14T05:57:07;98802.60;;;12.70
67822;BMP180;54434;50.096;20.082;2023-06-14T05:59:43;98801.00;;;12.70
67822;BMP180;54434;50.096;20.082;2023-06-14T06:02:20;98801.40;;;12.68
67822;BMP180;54434;50.096;20.082;2023-06-14T06:04:56;98802.20;;;12.70
67822;BMP180;54434;50.096;20.082;2023-06-14T06:07:33;98805.40;;;12.70
67822;BMP180;54434;50.096;20.082;2023-06-14T06:10:14;98804.60;;;12.70
67822;BMP180;54434;50.096;20.082;2023-06-14T06:12:50;98810.40;;;12.80
67822;BMP180;54434;50.096;20.082;2023-06-14T06:15:27;98806.80;;;12.80
67822;BMP180;54434;50.096;20.082;2023-06-14T06:18:03;98812.40;;;12.80
67822;BMP180;54434;50.096;20.082;2023-06-14T06:20:40;98809.20;;;12.80
67822;BMP180;54434;50.096;20.082;2023-06-14T06:23:17;98810.20;;;12.90
67822;BMP180;54434;50.096;20.082;2023-06-14T06:25:53;98810.80;;;12.90
67822;BMP180;54434;50.096;20.082;2023-06-14T06:28:30;98809.40;;;12.90
67822;BMP180;54434;50.096;20.082;2023-06-14T06:31:06;98805.60;;;13.00
67822;BMP180;54434;50.096;20.082;2023-06-14T06:33:43;98807.80;;;13.00
67822;BMP180;54434;50.096;20.082;2023-06-14T06:36:19;98815.20;;;13.04
67822;BMP180;54434;50.096;20.082;2023-06-14T06:38:56;98821.20;;;13.10
67822;BMP180;54434;50.096;20.082;2023-06-14T06:41:32;98827.40;;;13.10
67822;BMP180;54434;50.096;20.082;2023-06-14T06:44:10;98834.40;;;13.20
67822;BMP180;54434;50.096;20.082;2023-06-14T06:46:48;98834.80;;;13.20
67822;BMP180;54434;50.096;20.082;2023-06-14T06:49:24;98833.40;;;13.20
67822;BMP180;54434;50.096;20.082;2023-06-14T06:52:09;98835.00;;;13.20
67822;BMP180;54434;50.096;20.082;2023-06-14T06:54:45;98835.40;;;13.20
67822;BMP180;54434;50.096;20.082;2023-06-14T06:57:22;98840.60;;;13.20
67822;BMP180;54434;50.096;20.082;2023-06-14T06:59:58;98845.80;;;13.20
67822;BMP180;54434;50.096;20.082;2023-06-14T07:02:36;98846.20;;;13.20
67822;BMP180;54434;50.096;20.082;2023-06-14T07:05:13;98847.00;;;13.20
67822;BMP180;54434;50.096;20.082;2023-06-14T07:07:50;98851.80;;;13.20
67822;BMP180;54434;50.096;20.082;2023-06-14T07:10:27;98848.40;;;13.20
67822;BMP180;54434;50.096;20.082;2023-06-14T07:13:04;98847.80;;;13.18
67822;BMP180;54434;50.096;20.082;2023-06-14T07:15:44;98856.20;;;13.10
67822;BMP180;54434;50.096;20.082;2023-06-14T07:18:21;98864.00;;;13.10
67822;BMP180;54434;50.096;20.082;2023-06-14T07:20:58;98861.60;;;13.02
67822;BMP180;54434;50.096;20.082;2023-06-14T07:23:35;98854.60;;;13.00
67822;BMP180;54434;50.096;20.082;2023-06-14T07:26:12;98857.40;;;13.00
67822;BMP180;54434;50.096;20.082;2023-06-14T07:28:49;98861.40;;;12.98
67822;BMP180;54434;50.096;20.082;2023-06-14T07:31:26;98866.20;;;12.90
67822;BMP180;54434;50.096;20.082;2023-06-14T07:34:03;98867.00;;;12.90
67822;BMP180;54434;50.096;20.082;2023-06-14T07:36:40;98870.00;;;12.90
67822;BMP180;54434;50.096;20.082;2023-06-14T07:39:20;98869.00;;;12.90
67822;BMP180;54434;50.096;20.082;2023-06-14T07:41:57;98868.20;;;13.00
67822;BMP180;54434;50.096;20.082;2023-06-14T07:44:34;98870.40;;;13.00
67822;BMP180;54434;50.096;20.082;2023-06-14T07:47:11;98870.80;;;13.00
67822;BMP180;54434;50.096;20.082;2023-06-14T07:49:48;98875.60;;;13.00
67822;BMP180;54434;50.096;20.082;2023-06-14T07:52:24;98876.80;;;13.00
67822;BMP180;54434;50.096;20.082;2023-06-14T07:55:01;98874.20;;;13.10
67822;BMP180;54434;50.096;20.082;2023-06-14T07:57:37;98877.80;;;13.10
67822;BMP180;54434;50.096;20.082;2023-06-14T08:00:17;98876.20;;;13.10
67822;BMP180;54434;50.096;20.082;2023-06-14T08:02:55;98873.00;;;13.10
67822;BMP180;54434;50.096;20.082;2023-06-14T08:05:35;98873.40;;;13.10
67822;BMP180;54434;50.096;20.082;2023-06-14T08:08:12;98870.60;;;13.20
67822;BMP180;54434;50.096;20.082;2023-06-14T08:10:48;98869.20;;;13.20
67822;BMP180;54434;50.096;20.082;2023-06-14T08:13:25;98866.00;;;13.20
67822;BMP180;54434;50.096;20.082;2023-06-14T08:16:01;98874.20;;;13.20
67822;BMP180;54434;50.096;20.082;2023-06-14T08:18:40;98872.00;;;13.20
67822;BMP180;54434;50.096;20.082;2023-06-14T08:21:16;98872.20;;;13.20
67822;BMP180;54434;50.096;20.082;2023-06-14T08:23:53;98868.00;;;13.20
67822;BMP180;54434;50.096;20.082;2023-06-14T08:26:30;98869.00;;;13.20
67822;BMP180;54434;50.096;20.082;2023-06-14T08:29:07;98867.20;;;13.20
67822;BMP180;54434;50.096;20.082;2023-06-14T08:31:43;98870.40;;;13.20
67822;BMP180;54434;50.096;20.082;2023-06-14T08:34:20;98868.00;;;13.20
67822;BMP180;54434;50.096;20.082;2023-06-14T08:36:58;98872.00;;;13.30
67822;BMP180;54434;50.096;20.082;2023-06-14T08:39:36;98871.60;;;13.30
67822;BMP180;54434;50.096;20.082;2023-06-14T08:42:13;98872.40;;;13.30
67822;BMP180;54434;50.096;20.082;2023-06-14T08:45:06;98879.00;;;13.30
67822;BMP180;54434;50.096;20.082;2023-06-14T08:47:43;98879.40;;;13.30
67822;BMP180;54434;50.096;20.082;2023-06-14T08:50:23;98879.40;;;13.28
67822;BMP180;54434;50.096;20.082;2023-06-14T08:53:04;98882.80;;;13.26
67822;BMP180;54434;50.096;20.082;2023-06-14T08:55:45;98884.80;;;13.20
67822;BMP180;54434;50.096;20.082;2023-06-14T08:58:23;98890.40;;;13.20
67822;BMP180;54434;50.096;20.082;2023-06-14T09:01:00;98895.00;;;13.20
67822;BMP180;54434;50.096;20.082;2023-06-14T09:03:38;98898.80;;;13.20
67822;BMP180;54434;50.096;20.082;2023-06-14T09:06:16;98903.00;;;13.26
67822;BMP180;54434;50.096;20.082;2023-06-14T09:08:54;98907.40;;;13.24
67822;BMP180;54434;50.096;20.082;2023-06-14T09:11:34;98900.20;;;13.20
67822;BMP180;54434;50.096;20.082;2023-06-14T09:14:11;98906.00;;;13.20
67822;BMP180;54434;50.096;20.082;2023-06-14T09:16:48;98908.60;;;13.22
67822;BMP180;54434;50.096;20.082;2023-06-14T09:19:30;98907.60;;;13.28
67822;BMP180;54434;50.096;20.082;2023-06-14T09:22:08;98911.40;;;13.24
67822;BMP180;54434;50.096;20.082;2023-06-14T09:24:47;98913.00;;;13.30
67822;BMP180;54434;50.096;20.082;2023-06-14T09:27:24;98913.60;;;13.30
67822;BMP180;54434;50.096;20.082;2023-06-14T09:30:01;98918.60;;;13.30
67822;BMP180;54434;50.096;20.082;2023-06-14T09:32:41;98918.80;;;13.36
67822;BMP180;54434;50.096;20.082;2023-06-14T09:35:20;98919.60;;;13.40
67822;BMP180;54434;50.096;20.082;2023-06-14T09:37:58;98920.20;;;13.40
67822;BMP180;54434;50.096;20.082;2023-06-14T09:40:38;98922.60;;;13.50
67822;BMP180;54434;50.096;20.082;2023-06-14T09:43:15;98920.00;;;13.50
67822;BMP180;54434;50.096;20.082;2023-06-14T09:45:51;98917.40;;;13.60
67822;BMP180;54434;50.096;20.082;2023-06-14T09:48:28;98921.60;;;13.70
67822;BMP180;54434;50.096;20.082;2023-06-14T09:51:06;98917.40;;;13.70
67822;BMP180;54434;50.096;20.082;2023-06-14T09:53:44;98913.80;;;13.70
67822;BMP180;54434;50.096;20.082;2023-06-14T09:56:28;98911.20;;;13.76
67822;BMP180;54434;50.096;20.082;2023-06-14T09:59:10;98904.00;;;13.72
67822;BMP180;54434;50.096;20.082;2023-06-14T10:01:50;98906.40;;;13.78
67822;BMP180;54434;50.096;20.082;2023-06-14T10:04:29;98905.20;;;13.80
67822;BMP180;54434;50.096;20.082;2023-06-14T10:07:08;98905.80;;;13.80
67822;BMP180;54434;50.096;20.082;2023-06-14T10:09:45;98906.20;;;13.80
67822;BMP180;54434;50.096;20.082;2023-06-14T10:12:24;98908.20;;;13.80
67822;BMP180;54434;50.096;20.082;2023-06-14T10:15:03;98905.00;;;13.80
67822;BMP180;54434;50.096;20.082;2023-06-14T10:17:48;98912.80;;;13.80
67822;BMP180;54434;50.096;20.082;2023-06-14T10:20:37;98910.20;;;13.88
67822;BMP180;54434;50.096;20.082;2023-06-14T10:23:23;98907.60;;;13.90
67822;BMP180;54434;50.096;20.082;2023-06-14T10:26:01;98903.40;;;13.90
67822;BMP180;54434;50.096;20.082;2023-06-14T10:28:40;98904.60;;;14.00
67822;BMP180;54434;50.096;20.082;2023-06-14T10:31:16;98904.40;;;14.00
67822;BMP180;54434;50.096;20.082;2023-06-14T10:33:59;98905.60;;;14.10
67822;BMP180;54434;50.096;20.082;2023-06-14T10:36:36;98910.00;;;14.20
67822;BMP180;54434;50.096;20.082;2023-06-14T10:39:17;98904.40;;;14.30
67822;BMP180;54434;50.096;20.082;2023-06-14T10:42:01;98902.20;;;14.50
67822;BMP180;54434;50.096;20.082;2023-06-14T10:44:50;98904.80;;;14.60
67822;BMP180;54434;50.096;20.082;2023-06-14T10:47:31;98906.60;;;14.62
67822;BMP180;54434;50.096;20.082;2023-06-14T10:50:13;98909.00;;;14.70
67822;BMP180;54434;50.096;20.082;2023-06-14T10:52:51;98906.60;;;14.70
67822;BMP180;54434;50.096;20.082;2023-06-14T10:55:29;98907.40;;;14.70
67822;BMP180;54434;50.096;20.082;2023-06-14T10:58:10;98901.60;;;14.70
67822;BMP180;54434;50.096;20.082;2023-06-14T11:00:49;98901.20;;;14.80
67822;BMP180;54434;50.096;20.082;2023-06-14T11:03:51;98902.00;;;14.90
67822;BMP180;54434;50.096;20.082;2023-06-14T11:06:47;98898.20;;;15.10
67822;BMP180;54434;50.096;20.082;2023-06-14T11:10:03;98894.60;;;15.24
67822;BMP180;54434;50.096;20.082;2023-06-14T11:12:42;98891.80;;;15.40
67822;BMP180;54434;50.096;20.082;2023-06-14T11:15:22;98893.00;;;15.60
67822;BMP180;54434;50.096;20.082;2023-06-14T11:18:06;98894.60;;;15.80
67822;BMP180;54434;50.096;20.082;2023-06-14T11:20:47;98892.40;;;16.00
67822;BMP180;54434;50.096;20.082;2023-06-14T11:23:24;98894.80;;;16.10
67822;BMP180;54434;50.096;20.082;2023-06-14T11:26:00;98887.60;;;16.30
67822;BMP180;54434;50.096;20.082;2023-06-14T11:28:42;98890.40;;;16.40
67822;BMP180;54434;50.096;20.082;2023-06-14T11:31:21;98893.20;;;16.40
67822;BMP180;54434;50.096;20.082;2023-06-14T11:34:00;98890.20;;;16.40
67822;BMP180;54434;50.096;20.082;2023-06-14T11:36:39;98892.60;;;16.40
67822;BMP180;54434;50.096;20.082;2023-06-14T11:39:16;98887.00;;;16.40
67822;BMP180;54434;50.096;20.082;2023-06-14T11:41:53;98889.00;;;16.30
67822;BMP180;54434;50.096;20.082;2023-06-14T11:44:31;98887.00;;;16.40
67822;BMP180;54434;50.096;20.082;2023-06-14T11:47:10;98882.60;;;16.40
67822;BMP180;54434;50.096;20.082;2023-06-14T11:49:47;98886.40;;;16.40
67822;BMP180;54434;50.096;20.082;2023-06-14T11:52:23;98882.20;;;16.50
67822;BMP180;54434;50.096;20.082;2023-06-14T11:55:00;98881.60;;;16.50
67822;BMP180;54434;50.096;20.082;2023-06-14T11:57:40;98874.60;;;16.60
67822;BMP180;54434;50.096;20.082;2023-06-14T12:00:22;98873.40;;;16.70
67822;BMP180;54434;50.096;20.082;2023-06-14T12:03:01;98870.60;;;16.80
67822;BMP180;54434;50.096;20.082;2023-06-14T12:05:38;98870.00;;;17.00
67822;BMP180;54434;50.096;20.082;2023-06-14T12:08:14;98874.40;;;17.12
67822;BMP180;54434;50.096;20.082;2023-06-14T12:10:55;98877.80;;;17.20
67822;BMP180;54434;50.096;20.082;2023-06-14T12:13:32;98873.20;;;17.30
67822;BMP180;54434;50.096;20.082;2023-06-14T12:16:10;98872.60;;;17.40
67822;BMP180;54434;50.096;20.082;2023-06-14T12:18:47;98875.20;;;17.50
67822;BMP180;54434;50.096;20.082;2023-06-14T12:21:27;98879.00;;;17.60
67822;BMP180;54434;50.096;20.082;2023-06-14T12:24:07;98880.00;;;17.70
67822;BMP180;54434;50.096;20.082;2023-06-14T12:26:44;98876.80;;;17.70
67822;BMP180;54434;50.096;20.082;2023-06-14T12:29:23;98880.40;;;17.70
67822;BMP180;54434;50.096;20.082;2023-06-14T12:32:00;98880.80;;;17.62
67822;BMP180;54434;50.096;20.082;2023-06-14T12:34:37;98881.80;;;17.50
67822;BMP180;54434;50.096;20.082;2023-06-14T12:37:13;98880.20;;;17.50
67822;BMP180;54434;50.096;20.082;2023-06-14T12:39:50;98879.00;;;17.40
67822;BMP180;54434;50.096;20.082;2023-06-14T12:42:26;98878.60;;;17.40
67822;BMP180;54434;50.096;20.082;2023-06-14T12:45:04;98878.60;;;17.40
67822;BMP180;54434;50.096;20.082;2023-06-14T12:47:41;98874.60;;;17.40
67822;BMP180;54434;50.096;20.082;2023-06-14T12:50:18;98873.80;;;17.50
67822;BMP180;54434;50.096;20.082;2023-06-14T12:52:59;98872.00;;;17.60
67822;BMP180;54434;50.096;20.082;2023-06-14T12:55:36;98863.60;;;17.80
67822;BMP180;54434;50.096;20.082;2023-06-14T12:58:13;98863.60;;;18.00
67822;BMP180;54434;50.096;20.082;2023-06-14T13:00:49;98859.80;;;18.10
67822;BMP180;54434;50.096;20.082;2023-06-14T13:03:26;98857.80;;;18.08
67822;BMP180;54434;50.096;20.082;2023-06-14T13:06:03;98851.80;;;18.16
67822;BMP180;54434;50.096;20.082;2023-06-14T13:08:40;98852.80;;;18.30
67822;BMP180;54434;50.096;20.082;2023-06-14T13:11:16;98849.60;;;18.40
67822;BMP180;54434;50.096;20.082;2023-06-14T13:13:53;98848.80;;;18.40
67822;BMP180;54434;50.096;20.082;2023-06-14T13:16:30;98849.40;;;18.48
67822;BMP180;54434;50.096;20.082;2023-06-14T13:19:07;98850.60;;;18.50
67822;BMP180;54434;50.096;20.082;2023-06-14T13:21:43;98849.40;;;18.40
67822;BMP180;54434;50.096;20.082;2023-06-14T13:24:20;98849.80;;;18.28
67822;BMP180;54434;50.096;20.082;2023-06-14T13:26:56;98850.40;;;18.10
67822;BMP180;54434;50.096;20.082;2023-06-14T13:29:33;98856.20;;;18.00
67822;BMP180;54434;50.096;20.082;2023-06-14T13:32:12;98860.80;;;18.10
67822;BMP180;54434;50.096;20.082;2023-06-14T13:34:48;98868.60;;;18.20
67822;BMP180;54434;50.096;20.082;2023-06-14T13:37:25;98861.60;;;18.10
67822;BMP180;54434;50.096;20.082;2023-06-14T13:40:02;98865.00;;;18.00
67822;BMP180;54434;50.096;20.082;2023-06-14T13:42:38;98860.40;;;17.80
67822;BMP180;54434;50.096;20.082;2023-06-14T13:45:16;98865.40;;;17.60
67822;BMP180;54434;50.096;20.082;2023-06-14T13:47:53;98863.40;;;17.50
67822;BMP180;54434;50.096;20.082;2023-06-14T13:50:30;98859.40;;;17.40
67822;BMP180;54434;50.096;20.082;2023-06-14T13:53:07;98862.40;;;17.30
67822;BMP180;54434;50.096;20.082;2023-06-14T13:55:45;98868.40;;;17.30
67822;BMP180;54434;50.096;20.082;2023-06-14T13:58:22;98863.20;;;17.50
67822;BMP180;54434;50.096;20.082;2023-06-14T14:01:00;98862.20;;;17.60
67822;BMP180;54434;50.096;20.082;2023-06-14T14:03:37;98865.60;;;17.60
67822;BMP180;54434;50.096;20.082;2023-06-14T14:06:14;98869.40;;;17.60
67822;BMP180;54434;50.096;20.082;2023-06-14T14:08:53;98873.40;;;17.60
67822;BMP180;54434;50.096;20.082;2023-06-14T14:11:31;98871.00;;;17.50
67822;BMP180;54434;50.096;20.082;2023-06-14T14:14:08;98863.80;;;17.50
67822;BMP180;54434;50.096;20.082;2023-06-14T14:16:45;98862.40;;;17.40
67822;BMP180;54434;50.096;20.082;2023-06-14T14:19:24;98863.40;;;17.40
67822;BMP180;54434;50.096;20.082;2023-06-14T14:22:02;98866.80;;;17.40
67822;BMP180;54434;50.096;20.082;2023-06-14T14:24:39;98870.60;;;17.50
67822;BMP180;54434;50.096;20.082;2023-06-14T14:27:15;98866.00;;;17.50
67822;BMP180;54434;50.096;20.082;2023-06-14T14:29:52;98864.60;;;17.40
67822;BMP180;54434;50.096;20.082;2023-06-14T14:32:29;98865.80;;;17.40
67822;BMP180;54434;50.096;20.082;2023-06-14T14:35:08;98862.00;;;17.40
67822;BMP180;54434;50.096;20.082;2023-06-14T14:37:44;98861.20;;;17.40
67822;BMP180;54434;50.096;20.082;2023-06-14T14:40:21;98863.00;;;17.50
67822;BMP180;54434;50.096;20.082;2023-06-14T14:42:57;98864.00;;;17.50
67822;BMP180;54434;50.096;20.082;2023-06-14T14:45:34;98861.80;;;17.50
67822;BMP180;54434;50.096;20.082;2023-06-14T14:48:11;98866.20;;;17.60
67822;BMP180;54434;50.096;20.082;2023-06-14T14:50:48;98859.40;;;17.60
67822;BMP180;54434;50.096;20.082;2023-06-14T14:53:24;98858.40;;;17.60
67822;BMP180;54434;50.096;20.082;2023-06-14T14:56:01;98855.40;;;17.60
67822;BMP180;54434;50.096;20.082;2023-06-14T14:58:41;98850.40;;;17.50